Time;durP1;ratioP1;P1;durP2;ratioP2;P2;SDS_P1;SDS_P2;PMS_P1;PMS_P2;Temp;Humidity;BMP_temperature;BMP_pressure;BME280_temperature;BME280_humidity;BME280_pressure;Samples;Min_cycle;Max_cycle;Signal;HPM_P1;HPM_P2
2022/01/24 00:01:31;;;;;;;16.77;10.18;;;4.60;96.70;;;;;;5002226;28;20092;-78
2022/01/24 00:04:03;;;;;;;15.25;10.52;;;4.70;96.70;;;;;;4984588;28;20129;-78
2022/01/24 00:06:32;;;;;;;16.77;9.75;;;4.70;96.70;;;;;;5002536;28;20572;-78
2022/01/24 00:09:01;;;;;;;16.08;10.48;;;4.60;96.70;;;;;;5000942;28;20050;-78
2022/01/24 00:11:41;;;;;;;17.10;11.45;;;4.60;96.70;;;;;;5006636;28;20541;-78
2022/01/24 00:17:13;;;;;;;14.98;9.98;;;4.60;96.70;;;;;;4997649;28;20419;-77
2022/01/24 00:27:59;;;;;;;20.73;11.90;;;4.50;96.70;;;;;;5023245;28;20045;-78
2022/01/24 00:30:29;;;;;;;16.95;10.95;;;4.50;96.70;;;;;;5027314;28;20065;-78
2022/01/24 00:32:57;;;;;;;15.68;10.20;;;4.40;96.70;;;;;;5023194;28;20046;-77
2022/01/24 00:35:25;;;;;;;18.33;11.15;;;4.30;96.70;;;;;;5024034;28;20069;-78
2022/01/24 00:37:58;;;;;;;15.50;10.55;;;4.30;96.70;;;;;;5025433;28;20136;-78
2022/01/24 00:40:38;;;;;;;16.08;10.35;;;4.30;96.70;;;;;;5028054;28;20052;-78
2022/01/24 00:43:33;;;;;;;17.10;11.00;;;4.30;96.70;;;;;;5021435;28;20096;-78
2022/01/24 00:46:09;;;;;;;15.68;9.88;;;4.30;96.70;;;;;;5019086;28;20064;-77
2022/01/24 00:54:44;;;;;;;18.38;11.60;;;4.30;96.70;;;;;;5020921;28;20060;-77
2022/01/24 00:57:12;;;;;;;21.38;11.95;;;4.20;96.70;;;;;;5011753;28;20045;-78
2022/01/24 00:59:40;;;;;;;18.40;11.30;;;4.20;96.70;;;;;;5013588;28;20438;-78
2022/01/24 01:02:11;;;;;;;19.30;13.07;;;4.20;96.70;;;;;;5044499;28;20056;-78
2022/01/24 01:07:26;;;;;;;16.75;11.65;;;4.10;96.70;;;;;;5024077;28;20073;-78
2022/01/24 01:18:17;;;;;;;21.83;12.48;;;4.10;96.70;;;;;;5019721;28;20064;-78
2022/01/24 01:23:19;;;;;;;15.88;11.50;;;4.30;96.70;;;;;;5024497;28;20063;-78
2022/01/24 01:25:48;;;;;;;16.00;10.95;;;4.30;96.70;;;;;;5007236;28;20129;-78
2022/01/24 01:28:17;;;;;;;19.27;12.27;;;4.30;96.70;;;;;;5005095;28;20084;-78
2022/01/24 01:30:50;;;;;;;15.32;11.55;;;4.30;96.70;;;;;;5023188;28;20049;-78
2022/01/24 01:55:39;;;;;;;16.25;11.32;;;4.20;96.70;;;;;;5026904;28;20041;-76
2022/01/24 01:58:09;;;;;;;16.52;11.15;;;4.20;96.70;;;;;;5035898;28;20045;-76
2022/01/24 02:00:51;;;;;;;17.08;11.63;;;4.10;96.70;;;;;;5017544;28;20076;-76
2022/01/24 02:03:20;;;;;;;16.30;11.07;;;4.10;96.70;;;;;;5017906;28;20042;-76
2022/01/24 02:05:50;;;;;;;16.13;10.60;;;4.10;96.70;;;;;;5024860;28;20128;-77
2022/01/24 02:08:21;;;;;;;15.43;11.23;;;4.10;96.70;;;;;;5022269;28;20145;-76
2022/01/24 02:10:49;;;;;;;14.25;10.23;;;4.10;96.70;;;;;;5020303;28;20507;-76
2022/01/24 02:13:18;;;;;;;14.52;9.25;;;4.10;96.70;;;;;;5020739;28;20115;-76
2022/01/24 02:16:07;;;;;;;13.63;8.73;;;4.00;96.70;;;;;;5021483;28;20041;-76
2022/01/24 02:18:49;;;;;;;12.00;8.88;;;3.90;96.70;;;;;;5021817;28;20662;-77
2022/01/24 02:21:41;;;;;;;11.60;8.55;;;3.70;96.70;;;;;;5026703;28;20043;-76
2022/01/24 02:24:11;;;;;;;13.80;9.23;;;3.60;96.70;;;;;;5037267;28;20068;-76
2022/01/24 02:26:40;;;;;;;12.25;8.70;;;3.60;96.70;;;;;;5021712;28;20080;-76
2022/01/24 02:34:20;;;;;;;12.52;8.40;;;3.60;96.70;;;;;;5023362;28;20387;-76
2022/01/24 02:36:52;;;;;;;12.30;8.77;;;3.60;96.70;;;;;;5036211;28;20046;-76
2022/01/24 02:51:01;;;;;;;;;;;3.70;96.70;;;;;;5020198;28;20123;-77
2022/01/24 02:53:11;;;;;;;12.38;7.88;;;3.70;96.70;;;;;;5024808;28;19947;-76
2022/01/24 02:55:40;;;;;;;13.32;8.55;;;3.80;96.70;;;;;;5018930;28;20462;-76
2022/01/24 02:58:09;;;;;;;12.57;8.95;;;3.80;96.70;;;;;;5038393;28;20528;-76
2022/01/24 03:00:38;;;;;;;13.00;9.20;;;3.80;96.70;;;;;;5016019;28;20042;-76
2022/01/24 03:03:07;;;;;;;12.93;9.15;;;3.80;96.70;;;;;;5035491;28;20070;-76
2022/01/24 03:05:35;;;;;;;12.35;9.27;;;3.70;96.70;;;;;;5036630;28;20060;-76
2022/01/24 03:08:05;;;;;;;12.48;8.65;;;3.60;96.70;;;;;;5022432;28;20053;-76
2022/01/24 03:10:43;;;;;;;15.52;9.05;;;3.60;96.70;;;;;;5019575;28;20060;-76
2022/01/24 03:15:43;;;;;;;13.18;9.27;;;3.50;96.70;;;;;;5018289;28;20068;-76
2022/01/24 03:18:12;;;;;;;12.98;9.00;;;3.60;96.70;;;;;;5017434;28;20041;-76
2022/01/24 03:20:41;;;;;;;13.13;9.15;;;3.60;96.70;;;;;;5036473;28;20033;-76
2022/01/24 03:23:09;;;;;;;12.25;8.75;;;3.60;96.70;;;;;;5035803;28;20081;-76
2022/01/24 03:25:39;;;;;;;13.48;9.30;;;3.70;96.70;;;;;;5026024;28;20470;-76
2022/01/24 03:28:08;;;;;;;11.93;8.77;;;3.60;96.70;;;;;;5018181;28;20052;-76
2022/01/24 03:30:37;;;;;;;12.75;8.98;;;3.60;96.70;;;;;;5035751;28;20083;-76
2022/01/24 03:33:07;;;;;;;14.73;10.07;;;3.50;96.70;;;;;;5036831;28;20506;-76
2022/01/24 03:35:37;;;;;;;13.18;9.10;;;3.50;96.70;;;;;;4999003;28;20045;-76
2022/01/24 03:38:05;;;;;;;15.30;9.40;;;3.50;96.70;;;;;;5035307;28;20585;-76
2022/01/24 03:40:33;;;;;;;15.13;8.80;;;3.50;96.70;;;;;;5024061;28;20099;-76
2022/01/24 03:43:03;;;;;;;13.48;9.43;;;3.50;96.70;;;;;;5021351;28;20519;-76
2022/01/24 03:45:47;;;;;;;13.70;9.10;;;3.50;96.70;;;;;;5021423;28;20096;-76
2022/01/24 03:51:02;;;;;;;14.30;9.18;;;3.30;96.70;;;;;;5023443;28;20044;-77
2022/01/24 03:53:30;;;;;;;13.55;8.45;;;3.20;96.70;;;;;;5023431;28;21261;-76
2022/01/24 03:55:59;;;;;;;13.93;8.63;;;3.30;96.70;;;;;;5019617;28;20038;-76
2022/01/24 03:58:28;;;;;;;14.57;9.55;;;3.30;96.70;;;;;;5052097;28;20065;-77
2022/01/24 04:00:58;;;;;;;13.63;9.68;;;3.20;96.70;;;;;;5022976;28;20439;-76
2022/01/24 04:03:26;;;;;;;15.57;9.50;;;3.30;96.70;;;;;;5017261;28;20380;-76
2022/01/24 04:05:54;;;;;;;15.05;10.00;;;3.30;96.70;;;;;;5036720;28;20299;-76
2022/01/24 04:08:23;;;;;;;14.75;9.60;;;3.30;96.70;;;;;;5018289;28;20152;-76
2022/01/24 04:10:55;;;;;;;15.80;9.05;;;3.30;96.70;;;;;;5020770;28;20088;-76
2022/01/24 04:21:48;;;;;;;17.42;10.45;;;3.10;96.70;;;;;;4978666;28;20122;-76
2022/01/24 04:24:21;;;;;;;14.50;9.10;;;3.00;96.70;;;;;;5013275;28;20049;-76
2022/01/24 04:26:50;;;;;;;12.07;8.48;;;3.00;96.70;;;;;;5016674;28;20108;-75
2022/01/24 04:29:18;;;;;;;13.60;9.10;;;2.90;96.70;;;;;;5033738;28;20360;-76
2022/01/24 04:31:48;;;;;;;13.57;9.50;;;2.90;96.70;;;;;;5020275;28;20041;-77
2022/01/24 04:34:17;;;;;;;13.80;8.93;;;2.90;96.70;;;;;;5038432;28;20139;-75
2022/01/24 04:36:45;;;;;;;14.98;9.27;;;2.90;96.70;;;;;;5018898;28;20092;-76
2022/01/24 04:39:14;;;;;;;13.35;8.90;;;2.90;96.70;;;;;;5034300;28;20140;-76
2022/01/24 04:41:46;;;;;;;12.20;8.43;;;2.90;96.70;;;;;;5018300;28;20052;-76
2022/01/24 04:44:27;;;;;;;12.45;8.85;;;2.90;96.70;;;;;;5020688;28;20510;-76
2022/01/24 04:52:31;;;;;;;11.90;8.60;;;2.90;96.70;;;;;;5034324;28;20050;-76
2022/01/24 04:54:59;;;;;;;15.07;9.98;;;2.90;96.70;;;;;;5032967;28;20042;-80
2022/01/24 04:57:29;;;;;;;13.60;9.60;;;2.90;96.70;;;;;;5023309;28;20049;-76
2022/01/24 04:59:59;;;;;;;13.90;9.43;;;2.90;96.70;;;;;;5019675;28;20045;-76
2022/01/24 05:02:28;;;;;;;14.43;9.32;;;3.00;96.70;;;;;;5018505;28;20111;-76
2022/01/24 05:04:57;;;;;;;15.18;9.73;;;3.00;96.70;;;;;;5049947;28;20045;-76
2022/01/24 05:07:26;;;;;;;11.65;9.15;;;2.90;96.70;;;;;;5058675;28;20041;-77
2022/01/24 05:10:09;;;;;;;12.35;9.30;;;2.90;96.70;;;;;;5022714;28;20045;-76
2022/01/24 05:23:41;;;;;;;14.30;8.77;;;2.90;96.70;;;;;;5032064;28;20045;-76
2022/01/24 05:26:10;;;;;;;14.52;9.23;;;2.80;96.70;;;;;;5038996;28;20037;-76
2022/01/24 05:28:38;;;;;;;15.27;9.30;;;2.80;96.70;;;;;;5022039;28;20052;-76
2022/01/24 05:31:06;;;;;;;13.43;9.50;;;2.80;96.70;;;;;;5010006;28;20120;-76
2022/01/24 05:33:38;;;;;;;12.23;8.93;;;2.90;96.70;;;;;;5021946;28;20045;-76
2022/01/24 05:36:06;;;;;;;13.00;8.85;;;2.90;96.70;;;;;;5023613;28;20383;-76
2022/01/24 05:38:34;;;;;;;13.05;8.32;;;3.00;96.70;;;;;;5020406;28;20119;-76
2022/01/24 05:41:02;;;;;;;12.57;8.23;;;3.00;96.70;;;;;;5058103;28;20180;-76
2022/01/24 05:43:31;;;;;;;11.98;8.30;;;2.90;96.70;;;;;;5038467;28;20072;-77
2022/01/24 05:45:59;;;;;;;11.30;7.82;;;2.80;96.70;;;;;;5039676;28;20095;-76
2022/01/24 05:48:27;;;;;;;11.77;7.85;;;2.80;96.70;;;;;;4990007;28;20065;-75
2022/01/24 05:50:56;;;;;;;10.82;8.13;;;2.80;96.70;;;;;;5056439;28;20041;-76
2022/01/24 05:53:24;;;;;;;10.43;7.40;;;2.90;96.70;;;;;;5036140;28;20267;-76
2022/01/24 05:55:53;;;;;;;11.13;7.80;;;3.00;96.70;;;;;;5021260;28;20472;-76
2022/01/24 05:58:21;;;;;;;10.32;7.28;;;2.90;96.70;;;;;;5018976;28;20119;-76
2022/01/24 06:00:49;;;;;;;10.93;7.60;;;2.80;96.70;;;;;;5020061;28;20555;-75
2022/01/24 06:03:18;;;;;;;12.52;7.93;;;2.70;96.70;;;;;;5017028;28;20045;-76
2022/01/24 06:05:46;;;;;;;12.23;8.07;;;2.70;96.70;;;;;;5041858;28;20517;-75
2022/01/24 06:08:19;;;;;;;12.45;8.45;;;2.70;96.70;;;;;;5020825;28;20068;-76
2022/01/24 06:10:47;;;;;;;13.60;9.05;;;2.70;96.70;;;;;;5027995;28;20542;-76
2022/01/24 06:13:16;;;;;;;10.88;8.15;;;2.70;96.70;;;;;;5023897;28;20037;-75
2022/01/24 06:15:44;;;;;;;11.75;8.35;;;2.80;96.70;;;;;;5022697;28;20046;-76
2022/01/24 06:18:12;;;;;;;11.70;8.40;;;2.80;96.70;;;;;;5019792;28;20080;-76
2022/01/24 06:20:43;;;;;;;15.45;8.88;;;2.80;96.70;;;;;;5044005;28;20037;-76
2022/01/24 06:23:15;;;;;;;11.80;8.50;;;2.70;96.70;;;;;;5022637;28;20083;-76
2022/01/24 06:25:45;;;;;;;13.30;9.20;;;2.80;96.70;;;;;;5036857;28;20058;-75
2022/01/24 06:28:13;;;;;;;13.85;8.60;;;2.80;96.70;;;;;;5020439;28;20045;-75
2022/01/24 06:30:41;;;;;;;14.95;9.52;;;2.80;96.70;;;;;;5035435;28;20045;-75
2022/01/24 06:33:09;;;;;;;13.43;8.90;;;2.80;96.70;;;;;;5038697;28;20033;-75
2022/01/24 06:35:37;;;;;;;13.18;9.18;;;2.80;96.70;;;;;;5023130;28;20045;-75
2022/01/24 06:38:05;;;;;;;13.10;8.75;;;2.80;96.70;;;;;;5023524;28;20050;-76
2022/01/24 06:40:33;;;;;;;14.20;8.88;;;2.70;96.70;;;;;;5022158;28;20098;-76
2022/01/24 06:43:03;;;;;;;15.80;9.63;;;2.80;96.70;;;;;;5020663;28;20095;-76
2022/01/24 06:45:31;;;;;;;13.82;8.60;;;2.80;96.70;;;;;;5021774;28;20576;-75
2022/01/24 06:48:02;;;;;;;14.18;9.02;;;2.80;96.70;;;;;;5025013;28;20102;-76
2022/01/24 06:50:30;;;;;;;17.00;10.20;;;2.90;96.70;;;;;;5018988;28;20308;-76
2022/01/24 06:53:00;;;;;;;16.60;9.52;;;3.00;96.70;;;;;;5052150;28;20454;-76
2022/01/24 06:55:28;;;;;;;16.05;8.82;;;3.00;96.70;;;;;;5019315;28;20045;-76
2022/01/24 06:57:56;;;;;;;16.65;9.38;;;3.00;96.70;;;;;;5038611;28;20041;-76
2022/01/24 07:00:26;;;;;;;16.65;9.38;;;3.00;96.70;;;;;;5020090;28;20046;-75
2022/01/24 07:02:54;;;;;;;16.33;9.55;;;2.90;96.70;;;;;;5034197;28;20144;-76
2022/01/24 07:05:23;;;;;;;18.00;10.07;;;2.90;96.70;;;;;;5016782;28;20415;-76
2022/01/24 07:07:51;;;;;;;21.67;10.13;;;2.90;96.70;;;;;;5005469;28;20044;-76
2022/01/24 07:10:22;;;;;;;38.03;10.80;;;2.80;96.70;;;;;;5000288;28;20045;-75
2022/01/24 07:12:58;;;;;;;21.58;11.02;;;2.90;96.70;;;;;;5012948;28;20052;-76
2022/01/24 07:15:34;;;;;;;20.02;10.00;;;2.80;96.70;;;;;;5035057;28;20038;-75
2022/01/24 07:20:35;;;;;;;21.40;12.02;;;2.90;96.70;;;;;;5019001;28;20421;-76
2022/01/24 07:23:04;;;;;;;21.98;12.55;;;3.00;96.70;;;;;;5009715;28;20041;-76
2022/01/24 07:25:31;;;;;;;26.35;12.18;;;3.10;96.70;;;;;;5021821;28;20042;-76
2022/01/24 07:27:59;;;;;;;26.88;13.70;;;3.10;96.70;;;;;;5034273;28;20064;-75
2022/01/24 07:30:31;;;;;;;24.75;12.57;;;3.10;96.70;;;;;;5021078;28;20038;-75
2022/01/24 07:32:59;;;;;;;19.63;12.50;;;3.10;96.70;;;;;;5020201;28;20561;-75
2022/01/24 07:35:27;;;;;;;21.50;12.55;;;3.00;96.70;;;;;;5004619;28;20047;-76
2022/01/24 07:37:55;;;;;;;20.52;11.73;;;3.00;96.70;;;;;;5021020;28;20045;-76
2022/01/24 07:40:24;;;;;;;20.15;11.65;;;3.00;96.70;;;;;;5020373;28;20445;-76
2022/01/24 07:45:40;;;;;;;23.40;11.20;;;3.10;96.70;;;;;;5023288;28;20052;-75
2022/01/24 07:48:08;;;;;;;16.05;10.15;;;3.10;96.70;;;;;;5016435;28;20328;-76
2022/01/24 07:50:40;;;;;;;19.52;11.05;;;3.10;96.70;;;;;;5020616;28;20037;-76
2022/01/24 07:53:09;;;;;;;16.77;10.07;;;3.10;96.70;;;;;;5020574;28;20068;-76
2022/01/24 07:55:37;;;;;;;26.42;11.10;;;3.00;96.70;;;;;;5006724;28;20041;-76
2022/01/24 07:58:06;;;;;;;15.52;10.07;;;3.10;96.70;;;;;;5019885;28;20045;-76
2022/01/24 08:00:34;;;;;;;17.05;9.45;;;3.10;96.70;;;;;;5033835;28;20034;-77
2022/01/24 08:03:05;;;;;;;17.85;9.63;;;3.10;96.70;;;;;;5018151;28;20594;-75
2022/01/24 08:05:37;;;;;;;13.60;10.02;;;3.10;96.70;;;;;;5020045;28;20074;-76
2022/01/24 08:08:06;;;;;;;19.17;9.07;;;3.10;96.70;;;;;;5020498;28;20059;-75
2022/01/24 08:10:34;;;;;;;18.95;9.27;;;3.10;96.70;;;;;;5019246;28;20066;-75
2022/01/24 08:13:02;;;;;;;15.98;8.75;;;3.10;96.70;;;;;;5019580;28;20384;-75
2022/01/24 08:15:33;;;;;;;13.45;8.90;;;3.10;96.70;;;;;;5036670;28;20738;-75
2022/01/24 08:18:03;;;;;;;10.80;7.10;;;3.10;96.70;;;;;;5020629;28;20728;-75
2022/01/24 08:20:31;;;;;;;13.98;8.10;;;3.20;96.70;;;;;;5023159;28;20096;-76
2022/01/24 08:23:11;;;;;;;12.00;8.13;;;3.30;96.70;;;;;;5036643;28;20124;-75
2022/01/24 08:25:39;;;;;;;12.93;8.43;;;3.30;96.70;;;;;;5019889;28;20580;-75
2022/01/24 08:28:07;;;;;;;11.98;7.38;;;3.30;96.70;;;;;;5023663;28;20049;-75
2022/01/24 08:30:36;;;;;;;9.90;6.80;;;3.30;96.70;;;;;;5040444;28;20041;-76
2022/01/24 08:33:08;;;;;;;8.85;6.68;;;3.30;96.70;;;;;;5024850;28;20114;-76
2022/01/24 08:35:43;;;;;;;10.23;6.80;;;3.40;96.70;;;;;;5020011;28;20107;-75
2022/01/24 08:38:11;;;;;;;11.90;6.88;;;3.40;96.70;;;;;;5023031;28;20174;-76
2022/01/24 08:40:40;;;;;;;11.10;6.72;;;3.40;96.70;;;;;;5037043;28;20049;-75
2022/01/24 08:43:09;;;;;;;13.43;7.68;;;3.60;96.70;;;;;;5028059;28;20513;-75
2022/01/24 08:45:50;;;;;;;13.45;7.90;;;3.70;96.70;;;;;;5039797;28;20049;-75
2022/01/24 08:48:21;;;;;;;14.65;8.25;;;3.60;96.70;;;;;;5024187;28;20112;-75
2022/01/24 08:50:50;;;;;;;16.45;8.45;;;3.70;96.70;;;;;;5022271;28;20076;-74
2022/01/24 08:53:25;;;;;;;14.30;8.30;;;3.90;96.70;;;;;;5041390;28;20127;-75
2022/01/24 08:55:54;;;;;;;14.45;8.45;;;3.90;96.70;;;;;;5024774;28;20057;-76
2022/01/24 08:58:24;;;;;;;14.25;8.77;;;3.80;96.70;;;;;;5020774;28;20080;-75
2022/01/24 09:00:52;;;;;;;12.77;8.85;;;3.90;96.70;;;;;;5026646;28;20041;-76
2022/01/24 09:03:29;;;;;;;13.18;8.43;;;4.10;96.70;;;;;;5040300;28;20507;-76
2022/01/24 09:06:00;;;;;;;12.55;7.25;;;4.00;96.70;;;;;;5041770;28;20044;-76
2022/01/24 09:08:30;;;;;;;12.27;7.70;;;4.10;96.70;;;;;;5038562;28;20120;-76
2022/01/24 09:10:58;;;;;;;13.13;8.18;;;4.10;96.70;;;;;;5041339;28;20045;-75
2022/01/24 09:13:26;;;;;;;16.48;9.43;;;4.20;96.70;;;;;;5022719;28;20052;-75
2022/01/24 09:15:54;;;;;;;13.13;8.90;;;4.30;96.70;;;;;;5042468;28;20498;-77
2022/01/24 09:18:24;;;;;;;13.75;8.20;;;4.40;96.70;;;;;;5032652;28;20038;-76
2022/01/24 09:20:53;;;;;;;10.00;7.35;;;4.40;96.70;;;;;;5037234;28;20613;-74
2022/01/24 09:23:22;;;;;;;14.25;9.13;;;4.40;96.70;;;;;;5023797;28;20034;-77
2022/01/24 09:25:51;;;;;;;13.13;7.43;;;4.50;96.70;;;;;;5025444;28;20139;-78
2022/01/24 09:28:19;;;;;;;11.48;6.93;;;4.60;96.70;;;;;;5038764;28;20556;-78
2022/01/24 09:30:48;;;;;;;14.80;7.70;;;4.60;96.70;;;;;;5044547;28;20077;-78
2022/01/24 09:33:16;;;;;;;11.45;7.50;;;4.70;96.70;;;;;;5038124;28;20030;-77
2022/01/24 09:35:52;;;;;;;10.90;7.13;;;4.60;96.70;;;;;;5022488;28;20335;-77
2022/01/24 09:38:21;;;;;;;11.63;7.15;;;4.70;96.70;;;;;;5020305;28;20077;-77
2022/01/24 09:40:49;;;;;;;13.70;7.53;;;4.70;96.70;;;;;;5038335;28;20559;-77
2022/01/24 09:43:17;;;;;;;13.57;7.68;;;4.80;96.70;;;;;;5021570;28;20044;-76
2022/01/24 09:45:47;;;;;;;11.63;7.13;;;4.90;96.70;;;;;;5021010;28;20396;-77
2022/01/24 09:48:16;;;;;;;16.35;8.10;;;5.00;96.70;;;;;;5035945;28;20365;-77
2022/01/24 09:50:46;;;;;;;13.50;7.55;;;5.00;96.70;;;;;;5007736;28;20534;-78
2022/01/24 09:53:16;;;;;;;8.75;6.65;;;5.00;96.70;;;;;;5020330;28;20131;-77
2022/01/24 09:55:45;;;;;;;10.95;6.43;;;5.00;96.70;;;;;;5038227;28;20494;-77
2022/01/24 09:58:13;;;;;;;11.50;7.38;;;5.00;96.70;;;;;;5020905;28;20147;-77
2022/01/24 10:00:41;;;;;;;9.43;6.78;;;5.20;96.70;;;;;;5054396;28;20049;-77
2022/01/24 10:03:14;;;;;;;10.10;7.40;;;5.30;96.70;;;;;;5016999;28;20029;-77
2022/01/24 10:06:03;;;;;;;9.63;7.32;;;5.50;96.70;;;;;;5036515;28;20483;-77
2022/01/24 10:08:35;;;;;;;9.60;6.95;;;5.60;96.70;;;;;;5024318;28;20057;-77
2022/01/24 10:11:06;;;;;;;15.40;8.10;;;5.70;96.70;;;;;;5023036;28;20073;-76
2022/01/24 10:16:28;;;;;;;9.00;6.97;;;5.90;96.70;;;;;;5019119;28;20446;-76
2022/01/24 10:19:09;;;;;;;11.15;6.80;;;6.10;96.70;;;;;;5022385;28;20049;-77
2022/01/24 10:22:00;;;;;;;8.98;7.10;;;6.30;96.70;;;;;;5033795;28;20495;-78
2022/01/24 10:24:35;;;;;;;9.18;7.55;;;6.50;96.70;;;;;;5022528;28;20144;-78
2022/01/24 10:27:13;;;;;;;11.60;8.57;;;6.70;96.70;;;;;;5022615;28;20371;-76
2022/01/24 10:29:44;;;;;;;11.23;8.68;;;6.80;96.70;;;;;;5022929;28;20045;-77
2022/01/24 10:32:28;;;;;;;11.30;8.25;;;7.00;96.70;;;;;;5021881;28;20052;-76
2022/01/24 10:35:04;;;;;;;12.93;8.25;;;7.10;96.70;;;;;;5015019;28;20057;-77
2022/01/24 10:37:32;;;;;;;10.27;7.50;;;7.30;96.70;;;;;;5037126;28;20050;-77
2022/01/24 10:40:09;;;;;;;12.15;7.55;;;7.40;96.70;;;;;;5019887;28;20042;-77
2022/01/24 10:42:55;;;;;;;10.40;8.27;;;7.50;96.70;;;;;;5022884;28;20045;-76
2022/01/24 10:45:25;;;;;;;10.88;8.80;;;7.50;96.70;;;;;;5023009;28;20041;-76
2022/01/24 10:47:55;;;;;;;9.77;7.53;;;7.50;96.70;;;;;;5037845;28;20452;-76
2022/01/24 10:50:30;;;;;;;11.23;8.68;;;7.60;96.70;;;;;;5021380;28;20050;-76
2022/01/24 10:53:09;;;;;;;13.73;9.02;;;7.70;96.70;;;;;;5040400;28;20049;-75
2022/01/24 10:55:41;;;;;;;12.52;8.65;;;7.80;96.70;;;;;;5032263;28;20045;-76
2022/01/24 10:58:16;;;;;;;11.57;9.05;;;7.90;96.70;;;;;;5045688;28;20048;-76
2022/01/24 11:00:46;;;;;;;12.18;9.05;;;8.00;96.70;;;;;;5020921;28;20073;-75
2022/01/24 11:03:17;;;;;;;13.93;9.27;;;8.00;96.70;;;;;;5019639;28;20448;-75
2022/01/24 11:05:46;;;;;;;13.43;8.82;;;8.20;96.70;;;;;;5023237;28;20387;-76
2022/01/24 11:08:16;;;;;;;12.48;9.05;;;8.30;96.70;;;;;;5036062;28;20399;-75
2022/01/24 11:10:47;;;;;;;13.35;8.98;;;8.40;96.70;;;;;;5037426;28;20106;-76
2022/01/24 11:13:20;;;;;;;11.13;8.95;;;8.50;96.70;;;;;;5021458;28;20046;-75
2022/01/24 11:15:55;;;;;;;16.00;10.98;;;8.60;96.70;;;;;;5052089;28;20144;-76
2022/01/24 11:18:31;;;;;;;16.42;12.18;;;8.60;96.70;;;;;;5019579;28;20050;-75
2022/01/24 11:21:12;;;;;;;16.63;12.32;;;8.70;96.70;;;;;;5025041;28;20044;-76
2022/01/24 11:23:41;;;;;;;16.58;12.48;;;8.80;96.70;;;;;;5019426;28;20549;-76
2022/01/24 11:26:13;;;;;;;19.55;13.50;;;8.90;96.70;;;;;;5025787;28;20469;-76
2022/01/24 11:28:41;;;;;;;17.30;12.88;;;9.00;96.70;;;;;;5004971;28;20509;-76
2022/01/24 11:31:16;;;;;;;20.15;14.38;;;9.20;96.70;;;;;;5025686;28;20053;-77
2022/01/24 11:33:54;;;;;;;19.00;14.50;;;9.30;96.70;;;;;;5017964;28;20136;-76
2022/01/24 11:36:36;;;;;;;20.63;14.50;;;9.40;96.70;;;;;;5022244;28;20442;-76
2022/01/24 11:39:05;;;;;;;20.90;14.35;;;9.50;96.70;;;;;;5013959;28;20069;-75
2022/01/24 11:41:38;;;;;;;21.02;14.63;;;9.60;96.70;;;;;;5024503;28;20037;-76
2022/01/24 11:44:10;;;;;;;18.13;13.27;;;9.70;96.70;;;;;;5020290;28;20051;-76
2022/01/24 11:46:46;;;;;;;19.00;14.20;;;9.90;96.70;;;;;;5018522;28;20053;-76
2022/01/24 11:49:16;;;;;;;19.17;13.52;;;10.00;96.70;;;;;;5032628;28;20103;-76
2022/01/24 11:51:47;;;;;;;19.65;13.90;;;10.00;96.70;;;;;;5006540;28;20084;-76
2022/01/24 11:54:43;;;;;;;16.90;14.20;;;10.00;96.70;;;;;;5019969;28;20407;-76
2022/01/24 11:57:25;;;;;;;17.88;14.23;;;10.10;96.70;;;;;;5020123;28;20038;-76
2022/01/24 12:00:16;;;;;;;20.92;15.38;;;10.20;96.70;;;;;;5023150;28;20119;-76
2022/01/24 12:02:46;;;;;;;16.90;14.38;;;10.20;96.70;;;;;;5020206;28;20049;-76
2022/01/24 12:05:16;;;;;;;16.63;13.68;;;10.30;96.70;;;;;;5025488;28;20056;-76
2022/01/24 12:07:46;;;;;;;16.90;13.18;;;10.40;96.70;;;;;;5032920;28;20072;-76
2022/01/24 12:10:44;;;;;;;19.25;13.43;;;10.50;96.70;;;;;;5022237;28;20053;-76
2022/01/24 12:13:19;;;;;;;17.52;12.88;;;10.60;96.70;;;;;;5025657;28;20598;-76
2022/01/24 12:16:01;;;;;;;16.25;12.63;;;10.70;96.70;;;;;;5024975;28;20033;-76
2022/01/24 12:18:57;;;;;;;18.27;12.93;;;10.90;96.70;;;;;;5027746;28;20052;-76
2022/01/24 12:21:27;;;;;;;16.40;11.65;;;11.00;96.70;;;;;;5024280;28;20069;-76
2022/01/24 12:24:00;;;;;;;14.95;11.32;;;11.10;96.70;;;;;;5043635;28;20068;-76
2022/01/24 12:26:42;;;;;;;15.65;12.25;;;11.20;96.70;;;;;;5021897;28;20342;-76
2022/01/24 12:29:13;;;;;;;16.25;12.00;;;11.30;96.70;;;;;;5027283;28;20053;-76
2022/01/24 12:31:52;;;;;;;17.02;11.52;;;11.40;96.70;;;;;;5022897;28;20049;-76
2022/01/24 12:34:27;;;;;;;15.85;11.48;;;11.50;96.70;;;;;;5039693;28;20113;-76
2022/01/24 12:37:10;;;;;;;12.07;9.82;;;11.60;96.70;;;;;;5025053;28;20046;-76
2022/01/24 12:39:58;;;;;;;12.50;10.90;;;11.70;96.70;;;;;;5028611;28;20324;-76
2022/01/24 12:42:52;;;;;;;12.98;10.90;;;11.80;96.70;;;;;;5027932;28;20033;-76
2022/01/24 12:48:32;;;;;;;14.00;11.40;;;12.00;96.70;;;;;;5042478;28;20314;-76
2022/01/24 12:51:00;;;;;;;14.43;11.65;;;12.10;96.70;;;;;;5022889;28;20405;-76
2022/01/24 12:53:29;;;;;;;15.88;11.00;;;12.10;96.70;;;;;;5024576;28;20096;-76
2022/01/24 12:55:59;;;;;;;13.38;10.35;;;12.10;96.70;;;;;;5023275;28;20045;-76
2022/01/24 12:58:32;;;;;;;13.25;10.70;;;12.20;96.70;;;;;;5024139;28;20034;-76
2022/01/24 13:01:00;;;;;;;16.40;11.35;;;12.40;96.70;;;;;;5054522;28;20041;-75
2022/01/24 13:03:48;;;;;;;12.70;10.68;;;12.40;96.70;;;;;;5025090;28;20119;-76
2022/01/24 13:06:18;;;;;;;14.20;9.95;;;12.40;96.70;;;;;;5025714;28;20539;-76
2022/01/24 13:08:55;;;;;;;17.60;12.25;;;12.40;96.70;;;;;;5025804;28;20047;-76
2022/01/24 13:11:23;;;;;;;16.08;11.57;;;12.50;96.70;;;;;;5024435;28;20061;-76
2022/01/24 13:14:06;;;;;;;16.90;12.65;;;12.50;96.70;;;;;;5028013;28;20041;-76
2022/01/24 13:22:45;;;;;;;14.35;10.93;;;12.40;96.70;;;;;;5011565;28;20159;-76
2022/01/24 13:25:15;;;;;;;14.57;11.27;;;12.50;96.70;;;;;;5023300;28;20041;-76
2022/01/24 13:27:45;;;;;;;15.35;12.18;;;12.60;96.70;;;;;;5022175;28;20053;-76
2022/01/24 13:30:18;;;;;;;13.50;11.55;;;12.60;96.70;;;;;;5019526;28;20045;-77
2022/01/24 13:32:49;;;;;;;15.43;10.85;;;12.60;96.70;;;;;;5026125;28;20458;-77
2022/01/24 13:35:24;;;;;;;13.98;11.07;;;12.70;96.70;;;;;;5041711;28;20478;-76
2022/01/24 13:37:55;;;;;;;14.95;10.45;;;12.80;96.70;;;;;;5039848;28;20139;-75
2022/01/24 13:40:38;;;;;;;12.63;9.55;;;12.80;96.70;;;;;;5023611;28;20394;-76
2022/01/24 13:43:09;;;;;;;12.95;10.65;;;12.80;96.70;;;;;;5021758;28;20041;-76
2022/01/24 13:45:39;;;;;;;12.32;9.50;;;12.90;96.70;;;;;;5024313;28;20392;-75
2022/01/24 13:48:18;;;;;;;13.45;9.60;;;12.90;96.70;;;;;;5024690;28;20045;-76
2022/01/24 13:50:52;;;;;;;14.95;10.35;;;13.00;96.70;;;;;;5028481;28;20056;-76
2022/01/24 13:53:32;;;;;;;11.77;8.90;;;13.10;96.70;;;;;;5036650;28;20041;-75
2022/01/24 13:56:14;;;;;;;14.68;8.52;;;13.10;96.70;;;;;;5024843;28;20056;-76
2022/01/24 13:58:56;;;;;;;11.63;8.77;;;13.10;96.70;;;;;;5034061;28;20055;-76
2022/01/24 14:01:24;;;;;;;11.82;8.20;;;13.20;96.70;;;;;;5037120;28;20573;-75
2022/01/24 14:03:56;;;;;;;10.43;8.50;;;13.20;96.70;;;;;;5021838;28;20044;-76
2022/01/24 14:06:31;;;;;;;11.60;8.07;;;13.10;96.70;;;;;;5034133;28;20072;-77
2022/01/24 14:09:06;;;;;;;9.18;7.45;;;12.90;96.70;;;;;;5025566;28;20057;-75
2022/01/24 14:11:40;;;;;;;11.70;7.95;;;12.80;96.70;;;;;;5024988;28;20076;-76
2022/01/24 14:14:13;;;;;;;11.20;8.32;;;12.70;96.70;;;;;;5025108;28;20045;-76
2022/01/24 14:16:48;;;;;;;10.98;7.88;;;12.60;96.70;;;;;;5035495;28;20057;-75
2022/01/24 14:19:17;;;;;;;11.23;7.15;;;12.50;96.70;;;;;;5021489;28;20605;-76
2022/01/24 14:22:04;;;;;;;9.73;7.25;;;12.40;96.70;;;;;;5041445;28;20048;-76
2022/01/24 14:24:46;;;;;;;10.95;6.68;;;12.30;96.70;;;;;;5043093;28;20038;-75
2022/01/24 14:27:29;;;;;;;9.73;7.15;;;12.30;96.70;;;;;;5023792;28;20124;-76
2022/01/24 14:30:20;;;;;;;10.70;6.78;;;12.20;96.70;;;;;;5034657;28;20217;-76
2022/01/24 14:33:12;;;;;;;9.93;6.88;;;12.20;96.70;;;;;;5022502;28;20041;-75
2022/01/24 14:35:50;;;;;;;8.25;5.97;;;12.10;96.70;;;;;;5021583;28;20049;-76
2022/01/24 14:38:30;;;;;;;8.15;5.63;;;12.00;96.70;;;;;;5035635;28;20091;-75
2022/01/24 14:41:02;;;;;;;8.38;5.95;;;12.00;96.70;;;;;;5023214;28;20444;-75
2022/01/24 14:46:20;;;;;;;9.25;5.13;;;11.90;96.70;;;;;;5037030;28;20258;-75
2022/01/24 14:48:51;;;;;;;8.20;5.45;;;11.90;96.70;;;;;;5030397;28;20048;-76
2022/01/24 14:51:23;;;;;;;7.03;4.70;;;11.90;96.70;;;;;;5018666;28;20045;-75
2022/01/24 14:53:54;;;;;;;6.82;4.93;;;11.90;96.70;;;;;;5026584;28;20040;-75
2022/01/24 14:56:22;;;;;;;7.28;4.80;;;11.90;96.70;;;;;;5017404;28;20483;-76
2022/01/24 14:58:51;;;;;;;7.80;4.43;;;11.80;96.70;;;;;;5026330;28;20110;-76
2022/01/24 15:01:19;;;;;;;8.57;5.45;;;11.80;96.70;;;;;;5021704;28;20052;-76
2022/01/24 15:03:53;;;;;;;11.45;5.68;;;11.80;96.70;;;;;;5036876;28;20055;-76
2022/01/24 15:06:21;;;;;;;6.07;4.50;;;11.80;96.70;;;;;;5036495;28;20047;-76
2022/01/24 15:08:53;;;;;;;6.88;4.47;;;11.80;96.70;;;;;;5020025;28;20507;-76